FW0288 Weather Reports


Display with metric or nautical units.
time (UTC)temp
F
wind
direction
speed
MPH
gust
MPH
rain 1hr
in
rain 24hr
in
rain mn
in
humidity
%
barometer
mb
20191019080156 46 195 5.0 12.0 0.00 0.00 0.00 35 1005.5
20191019074737 47 225 4.0 11.0 0.00 0.00 0.00 35 1005.7
20191019073155 41 253 5.0 9.0 0.00 0.00 0.00 41 1005.8
20191019071636 41 194 1.0 4.0 0.00 0.00 0.00 41 1005.6
20191019070054 42 197 2.0 4.0 0.00 0.00 0.00 39 1005.6
20191019064613 44 268 0.0 2.0 0.00 0.00 0.00 36 1005.4
20191019063117 45 272 2.0 8.0 0.00 0.00 0.00 35 1005.3
20191019061557 44 265 5.0 8.0 0.00 0.00 0.00 38 1005.2
20191019060055 45 220 1.0 3.0 0.00 0.00 0.00 36 1005.0
20191019054637 46 198 1.0 2.0 0.00 0.00 0.00 34 1005.0
20191019053044 47 224 1.0 10.0 0.00 0.00 0.00 33 1004.9
20191019051614 48 200 5.0 11.0 0.00 0.00 0.00 32 1004.8
20191019050034 48 212 4.0 8.0 0.00 0.00 0.00 32 1004.6
20191019044550 48 277 3.0 9.0 0.00 0.00 0.00 31 1004.8
20191019043044 48 264 5.0 12.0 0.00 0.00 0.00 31 1004.6
20191019041554 49 210 6.0 16.0 0.00 0.00 0.00 31 1004.4
20191019040026 48 215 6.0 15.0 0.00 0.00 0.00 33 1004.4
20191019034521 49 240 5.0 17.0 0.00 0.00 0.00 32 1004.4
20191019033020 50 225 10.0 24.0 0.00 0.00 0.00 31 1004.2
20191019031516 50 243 9.0 21.0 0.00 0.00 0.00 31 1004.0
20191019030010 50 205 6.0 18.0 0.00 0.00 0.00 31 1003.6
20191019024505 50 226 11.0 24.0 0.00 0.00 0.00 30 1003.3
20191019023004 50 242 9.0 18.0 0.00 0.00 0.00 31 1003.2
20191019021506 50 239 11.0 19.0 0.00 0.00 0.00 31 1003.0
20191019020339 50 267 14.0 30.0 0.00 0.00 0.00 32 1002.5
20191019014702 51 279 13.0 34.0 0.00 0.00 0.00 32 1001.8
20191019013154 51 263 14.0 26.0 0.00 0.00 0.00 31 1001.8
20191019011621 51 223 9.0 18.0 0.00 0.00 0.00 31 1001.7
20191019010112 51 244 10.0 17.0 0.00 0.00 0.00 30 1001.5
20191019004622 52 256 12.0 25.0 0.00 0.00 0.00 29 1001.0
20191019003112 53 286 11.0 25.0 0.00 0.00 0.00 28 1000.6
20191019001700 53 233 10.0 26.0 0.00 0.00 0.00 27 1000.2
20191019000108 55 236 12.0 18.0 0.00 0.00 0.00 23 1000.0
20191018234615 57 274 7.0 14.0 0.00 0.00 0.00 21 999.6
20191018233114 58 230 7.0 15.0 0.00 0.00 0.00 20 999.3
20191018231533 59 250 3.0 10.0 0.00 0.00 0.00 23 998.9
20191018230044 59 258 5.0 13.0 0.00 0.00 0.00 23 998.4
20191018224524 59 263 7.0 15.0 0.00 0.00 0.00 24 998.0
20191018223040 60 231 5.0 14.0 0.00 0.00 0.00 22 997.7
20191018221551 60 200 5.0 22.0 0.00 0.00 0.00 23 997.5
20191018220049 61 229 8.0 20.0 0.00 0.00 0.00 22 997.4
20191018214521 61 248 6.0 19.0 0.00 0.00 0.00 23 997.1
20191018213031 59 215 10.0 20.0 0.00 0.00 0.00 26 996.9
20191018211543 60 238 12.0 19.0 0.00 0.00 0.00 26 996.4
20191018210010 61 212 8.0 16.0 0.00 0.00 0.00 27 996.0
20191018204548 60 199 7.0 17.0 0.00 0.00 0.00 29 995.9
20191018203010 60 229 7.0 22.0 0.00 0.00 0.00 28 995.6
20191018201518 60 229 11.0 27.0 0.00 0.00 0.00 29 995.6
20191018200031 60 227 12.0 21.0 0.00 0.00 0.00 29 995.6
20191018194511 61 235 12.0 25.0 0.00 0.00 0.00 28 995.7
20191018193007 62 265 12.0 30.0 0.00 0.00 0.00 27 995.9
20191018191506 62 212 9.0 23.0 0.00 0.00 0.00 27 995.6
20191018190005 60 205 7.0 17.0 0.00 0.00 0.00 30 995.9
20191018184502 59 229 9.0 21.0 0.00 0.00 0.00 32 996.1
20191018183003 58 215 9.0 26.0 0.00 0.00 0.00 32 996.1
20191018181646 59 256 13.0 28.0 0.00 0.00 0.00 33 995.8
20191018180238 59 232 5.0 10.0 0.00 0.00 0.00 38 995.8
20191018174806 58 74 1.0 7.0 0.00 0.00 0.00 40 995.3
20191018173140 58 58 4.0 11.0 0.00 0.00 0.00 40 994.6
20191018171628 57 55 7.0 11.0 0.00 0.00 0.00 42 994.3
20191018170143 57 12 6.0 9.0 0.00 0.00 0.00 40 994.4
20191018164630 56 49 4.0 6.0 0.00 0.00 0.00 43 994.6
20191018163124 56 39 3.0 11.0 0.00 0.00 0.00 40 994.5
20191018161702 57 17 7.0 12.0 0.00 0.00 0.00 39 994.2
20191018160139 57 53 10.0 14.0 0.00 0.00 0.00 37 993.9
20191018154654 57 36 5.0 11.0 0.00 0.00 0.00 37 993.8
20191018153157 57 32 5.0 14.0 0.00 0.00 0.00 36 993.6
20191018151612 57 347 7.0 13.0 0.00 0.00 0.00 33 993.8
20191018150121 59 355 4.0 20.0 0.00 0.00 0.00 34 993.5
20191018144619 62 261 13.0 25.0 0.00 0.00 0.00 35 993.3
20191018143142 61 282 7.0 14.0 0.00 0.00 0.00 33 992.9
20191018141610 58 261 5.0 7.0 0.00 0.00 0.00 35 993.1
20191018140134 57 355 3.0 8.0 0.00 0.00 0.00 37 992.7
20191018134529 56 231 1.0 6.0 0.00 0.00 0.00 36 991.9
20191018133103 58 159 0.0 4.0 0.00 0.00 0.00 33 991.8
20191018131547 59 159 1.0 6.0 0.00 0.00 0.00 31 991.6
20191018130058 59 161 1.0 8.0 0.00 0.00 0.00 32 991.8
20191018124534 57 254 4.0 10.0 0.00 0.00 0.00 33 991.7
20191018123022 57 241 0.0 4.0 0.00 0.00 0.00 32 991.9
20191018121545 60 173 0.0 5.0 0.00 0.00 0.00 29 991.9
20191018120039 63 258 1.0 10.0 0.00 0.00 0.00 27 992.2
20191018114523 63 224 9.0 25.0 0.00 0.00 0.00 27 992.1
20191018113009 61 252 3.0 7.0 0.00 0.00 0.00 28 991.9
20191018111513 63 278 6.0 10.0 0.00 0.00 0.00 26 992.1
20191018110011 64 205 4.0 13.0 0.00 0.00 0.00 26 992.4
20191018104537 63 167 3.0 17.0 0.00 0.00 0.00 26 992.4
20191018103018 61 250 5.0 13.0 0.00 0.00 0.00 28 992.2
20191018101508 54 263 2.0 7.0 0.00 0.00 0.00 31 992.2
20191018100005 55 88 1.0 6.0 0.00 0.00 0.00 29 992.3
20191018094707 56 146 0.0 2.0 0.00 0.00 0.00 27 992.3
20191018093231 58 130 0.0 4.0 0.00 0.00 0.00 25 992.4
20191018091648 57 110 3.0 7.0 0.00 0.00 0.00 25 992.6
20191018090248 58 143 0.0 5.0 0.00 0.00 0.00 24 992.7
20191018084706 59 165 2.0 5.0 0.00 0.00 0.00 23 992.7
20191018083205 59 123 1.0 6.0 0.00 0.00 0.00 22 992.9
20191018081812 56 157 5.0 8.0 0.00 0.00 0.00 24 993.1